Time;durP1;ratioP1;P1;durP2;ratioP2;P2;SDS_P1;SDS_P2;PMS_P1;PMS_P2;Temp;Humidity;BMP_temperature;BMP_pressure;BME280_temperature;BME280_humidity;BME280_pressure;Samples;Min_cycle;Max_cycle;Signal;HPM_P1;HPM_P2
2021/12/28 00:00:54;;;;;;;19.80;11.70;;;1.60;91.90;;;;;;4977396;28;20038;-67
2021/12/28 00:03:19;;;;;;;21.58;12.82;;;1.40;92.70;;;;;;4974544;28;20759;-68
2021/12/28 00:05:45;;;;;;;25.83;16.13;;;1.40;92.80;;;;;;4974405;28;20120;-67
2021/12/28 00:08:12;;;;;;;23.92;16.45;;;1.30;92.50;;;;;;4973434;28;20046;-67
2021/12/28 00:10:38;;;;;;;25.50;15.52;;;1.30;92.50;;;;;;4975272;28;20118;-67
2021/12/28 00:13:04;;;;;;;21.13;14.40;;;1.20;92.60;;;;;;4982378;28;20114;-67
2021/12/28 00:15:33;;;;;;;20.40;13.93;;;1.30;92.70;;;;;;4982366;28;20034;-67
2021/12/28 00:18:03;;;;;;;22.90;14.25;;;1.30;92.80;;;;;;4980433;28;20058;-67
2021/12/28 00:20:37;;;;;;;21.80;13.35;;;1.40;92.90;;;;;;4982393;28;20034;-67
2021/12/28 00:23:09;;;;;;;20.10;12.35;;;1.40;93.20;;;;;;4982185;28;20074;-66
2021/12/28 00:25:35;;;;;;;17.65;10.70;;;1.40;93.40;;;;;;4977154;28;20633;-65
2021/12/28 00:28:02;;;;;;;13.05;8.88;;;1.40;93.20;;;;;;4981141;28;20042;-65
2021/12/28 00:30:29;;;;;;;12.68;8.98;;;1.40;93.50;;;;;;4979578;28;20548;-65
2021/12/28 00:32:56;;;;;;;14.27;8.50;;;1.40;93.70;;;;;;4979068;28;20106;-65
2021/12/28 00:35:28;;;;;;;13.55;8.77;;;1.40;93.90;;;;;;4984003;28;20033;-66
2021/12/28 00:37:54;;;;;;;14.13;9.05;;;1.40;94.00;;;;;;4979314;28;20057;-66
2021/12/28 00:40:21;;;;;;;11.98;9.05;;;1.50;94.30;;;;;;4981940;28;20038;-65
2021/12/28 00:42:46;;;;;;;14.23;9.25;;;1.50;94.20;;;;;;4983547;28;20042;-65
2021/12/28 00:45:13;;;;;;;41.00;25.88;;;1.50;94.30;;;;;;4978794;28;20027;-65
2021/12/28 00:47:39;;;;;;;17.20;11.43;;;1.50;94.30;;;;;;4984051;28;20031;-65
2021/12/28 00:50:06;;;;;;;14.85;10.18;;;1.50;94.30;;;;;;4982263;28;20046;-66
2021/12/28 00:52:32;;;;;;;14.65;9.27;;;1.50;94.10;;;;;;4981602;28;20026;-66
2021/12/28 00:54:57;;;;;;;16.77;11.20;;;1.60;93.80;;;;;;4985184;28;20089;-65
2021/12/28 00:57:23;;;;;;;16.05;11.05;;;1.70;93.60;;;;;;4981272;28;20440;-66
2021/12/28 00:59:49;;;;;;;16.38;10.10;;;1.70;93.70;;;;;;4981419;28;21058;-65
2021/12/28 01:02:14;;;;;;;16.70;10.55;;;1.70;93.50;;;;;;4977751;28;20023;-66
2021/12/28 01:04:40;;;;;;;18.23;11.18;;;1.70;93.40;;;;;;4981009;28;20046;-66
2021/12/28 01:07:06;;;;;;;15.98;10.40;;;1.70;93.30;;;;;;4980567;28;20037;-66
2021/12/28 01:09:32;;;;;;;15.88;10.48;;;1.70;93.20;;;;;;4981243;28;20601;-65
2021/12/28 01:12:05;;;;;;;17.80;10.90;;;1.70;93.20;;;;;;4984244;28;20035;-66
2021/12/28 01:14:31;;;;;;;16.55;10.63;;;1.70;93.80;;;;;;4982387;28;20125;-66
2021/12/28 01:16:59;;;;;;;17.45;10.40;;;1.70;93.40;;;;;;4983124;28;20593;-66
2021/12/28 01:19:26;;;;;;;18.52;11.27;;;1.70;93.40;;;;;;4981223;28;20034;-66
2021/12/28 01:21:51;;;;;;;14.85;9.90;;;1.70;93.60;;;;;;4980261;28;20030;-65
2021/12/28 01:24:18;;;;;;;17.25;10.65;;;1.70;93.60;;;;;;4984415;28;20444;-65
2021/12/28 01:26:44;;;;;;;17.00;10.65;;;1.70;94.00;;;;;;4977878;28;20030;-65
2021/12/28 01:29:10;;;;;;;15.18;10.32;;;1.80;93.60;;;;;;4983536;28;20044;-65
2021/12/28 01:31:37;;;;;;;15.48;10.43;;;1.80;93.50;;;;;;4981505;28;20489;-63
2021/12/28 01:34:07;;;;;;;16.80;10.88;;;1.80;93.80;;;;;;4982220;28;20039;-64
2021/12/28 01:36:33;;;;;;;17.75;10.93;;;1.70;94.10;;;;;;4981217;28;20057;-65
2021/12/28 01:38:59;;;;;;;16.27;10.13;;;1.70;93.70;;;;;;4984053;28;20072;-65
2021/12/28 01:41:25;;;;;;;18.17;11.40;;;1.80;93.50;;;;;;4984107;28;20380;-65
2021/12/28 01:43:58;;;;;;;19.23;11.30;;;1.80;93.10;;;;;;4986887;28;20034;-65
2021/12/28 01:46:24;;;;;;;21.33;11.70;;;1.80;92.60;;;;;;4982131;28;20034;-65
2021/12/28 01:48:50;;;;;;;16.15;11.00;;;1.80;92.20;;;;;;4987335;28;20134;-65
2021/12/28 01:51:22;;;;;;;19.38;11.40;;;1.80;92.40;;;;;;4984426;28;20073;-65
2021/12/28 01:53:51;;;;;;;18.33;11.82;;;1.80;92.50;;;;;;4980039;28;20037;-65
2021/12/28 01:56:20;;;;;;;17.42;11.40;;;1.80;92.70;;;;;;4976659;28;20027;-65
2021/12/28 01:58:46;;;;;;;15.73;10.98;;;1.80;92.90;;;;;;4977342;28;20468;-65
2021/12/28 02:01:13;;;;;;;16.92;10.77;;;1.90;93.20;;;;;;4978775;28;20023;-65
2021/12/28 02:03:40;;;;;;;18.60;11.05;;;1.90;93.30;;;;;;4976357;28;20596;-65
2021/12/28 02:06:07;;;;;;;16.98;10.80;;;1.90;93.20;;;;;;4979858;28;20039;-65
2021/12/28 02:08:33;;;;;;;16.42;11.68;;;1.90;92.90;;;;;;4979344;28;20038;-65
2021/12/28 02:10:59;;;;;;;20.90;12.65;;;1.80;92.90;;;;;;4980568;28;20030;-65
2021/12/28 02:13:26;;;;;;;17.38;10.85;;;1.80;92.90;;;;;;4986064;28;20551;-65
2021/12/28 02:15:53;;;;;;;19.95;12.05;;;1.90;92.60;;;;;;4984284;28;20035;-65
2021/12/28 02:18:21;;;;;;;19.80;12.48;;;1.90;92.60;;;;;;4987865;28;20500;-66
2021/12/28 02:20:47;;;;;;;17.67;12.00;;;1.90;92.70;;;;;;4982937;28;20027;-66
2021/12/28 02:23:14;;;;;;;19.27;11.88;;;1.90;93.10;;;;;;4984847;28;20030;-66
2021/12/28 02:25:41;;;;;;;18.85;12.10;;;1.90;92.80;;;;;;4989506;28;20691;-66
2021/12/28 02:28:08;;;;;;;15.93;10.65;;;1.90;92.90;;;;;;4983611;28;20042;-66
2021/12/28 02:30:37;;;;;;;19.50;11.40;;;2.00;92.90;;;;;;4988442;28;20057;-67
2021/12/28 02:33:04;;;;;;;19.25;10.98;;;2.00;92.80;;;;;;4986411;28;20038;-67
2021/12/28 02:35:30;;;;;;;18.90;11.95;;;2.10;92.50;;;;;;4982165;28;20027;-67
2021/12/28 02:37:56;;;;;;;18.35;11.82;;;2.10;92.30;;;;;;4989423;28;20708;-67
2021/12/28 02:40:25;;;;;;;19.55;12.10;;;2.10;92.10;;;;;;4984669;28;20026;-67
2021/12/28 02:42:52;;;;;;;22.20;12.32;;;2.00;92.10;;;;;;4980904;28;20888;-67
2021/12/28 02:45:24;;;;;;;17.05;12.13;;;2.00;92.20;;;;;;4978090;28;20061;-66
2021/12/28 02:47:49;;;;;;;;;;;2.00;92.30;;;;;;4977726;28;20035;-67
2021/12/28 02:50:22;;;;;;;20.60;12.75;;;2.00;92.50;;;;;;4974949;28;20607;-66
2021/12/28 02:52:47;;;;;;;19.52;12.30;;;2.00;92.50;;;;;;4985872;28;20029;-67
2021/12/28 02:55:19;;;;;;;17.17;11.18;;;2.00;92.30;;;;;;4987651;28;20429;-67
2021/12/28 02:57:59;;;;;;;21.00;12.27;;;2.00;92.80;;;;;;4985782;28;20105;-67
2021/12/28 03:00:35;;;;;;;20.50;11.85;;;2.00;92.60;;;;;;4986540;28;20035;-67
2021/12/28 03:03:34;;;;;;;20.88;12.02;;;2.00;92.50;;;;;;4982984;28;20535;-67
2021/12/28 03:06:02;;;;;;;19.63;11.93;;;1.80;92.70;;;;;;4970676;28;20047;-66
2021/12/28 03:08:30;;;;;;;19.23;11.50;;;1.70;92.70;;;;;;4978861;28;20030;-66
2021/12/28 03:10:57;;;;;;;18.48;11.70;;;1.80;93.00;;;;;;4982781;28;20482;-67
2021/12/28 03:13:26;;;;;;;17.17;12.15;;;1.80;93.10;;;;;;4981919;28;20077;-67
2021/12/28 03:15:52;;;;;;;15.93;10.93;;;1.90;93.10;;;;;;4978435;28;20082;-66
2021/12/28 03:18:18;;;;;;;17.52;11.15;;;1.90;93.30;;;;;;4979552;28;20587;-67
2021/12/28 03:20:45;;;;;;;17.50;12.00;;;1.90;93.50;;;;;;4982200;28;20073;-67
2021/12/28 03:23:15;;;;;;;18.23;12.38;;;1.90;93.70;;;;;;4980503;28;20153;-67
2021/12/28 03:25:41;;;;;;;19.52;12.00;;;1.90;93.90;;;;;;4982333;28;20405;-66
2021/12/28 03:28:07;;;;;;;16.25;10.88;;;1.90;93.80;;;;;;4983874;28;20029;-67
2021/12/28 03:30:33;;;;;;;18.23;12.27;;;2.00;93.90;;;;;;4981789;28;20762;-67
2021/12/28 03:32:59;;;;;;;20.05;12.73;;;2.00;93.80;;;;;;4980121;28;20409;-67
2021/12/28 03:35:25;;;;;;;18.35;11.93;;;1.90;93.90;;;;;;4981400;28;20032;-66
2021/12/28 03:37:51;;;;;;;16.98;11.18;;;1.90;94.10;;;;;;4977240;28;20038;-67
2021/12/28 03:40:17;;;;;;;19.80;12.20;;;1.90;94.30;;;;;;4977759;28;20770;-67
2021/12/28 03:42:44;;;;;;;17.77;12.18;;;1.90;94.40;;;;;;4983816;28;20023;-67
2021/12/28 03:45:11;;;;;;;16.17;11.57;;;1.90;94.40;;;;;;4979066;28;20038;-67
2021/12/28 03:47:37;;;;;;;18.05;12.73;;;2.00;94.50;;;;;;4982440;28;20034;-67
2021/12/28 03:50:06;;;;;;;18.98;11.27;;;2.00;94.40;;;;;;4976801;28;20078;-67
2021/12/28 03:52:32;;;;;;;20.05;13.65;;;2.00;94.40;;;;;;4981480;28;20520;-66
2021/12/28 03:54:58;;;;;;;18.38;11.52;;;2.00;94.30;;;;;;4980500;28;20493;-67
2021/12/28 03:57:24;;;;;;;18.35;12.68;;;2.00;94.40;;;;;;4978431;28;20030;-66
2021/12/28 03:59:49;;;;;;;21.85;12.38;;;2.10;94.40;;;;;;4981259;28;20425;-67
2021/12/28 04:02:15;;;;;;;20.25;12.10;;;2.00;94.30;;;;;;4977785;28;20038;-67
2021/12/28 04:04:41;;;;;;;19.65;12.68;;;2.00;94.40;;;;;;4979415;28;20047;-66
2021/12/28 04:07:09;;;;;;;21.83;13.45;;;2.00;94.50;;;;;;4979849;28;20038;-67
2021/12/28 04:12:17;;;;;;;24.60;14.35;;;2.00;94.30;;;;;;4983129;28;20038;-66
2021/12/28 04:14:43;;;;;;;22.83;14.45;;;2.00;94.30;;;;;;4997002;28;20161;-67
2021/12/28 04:17:08;;;;;;;19.15;13.10;;;2.00;94.20;;;;;;4983716;28;20440;-67
2021/12/28 04:19:34;;;;;;;21.10;14.23;;;1.90;94.50;;;;;;4984394;28;20516;-67
2021/12/28 04:22:00;;;;;;;22.60;14.27;;;2.00;94.10;;;;;;4982997;28;20038;-66
2021/12/28 04:24:25;;;;;;;23.48;14.02;;;2.00;94.10;;;;;;4982959;28;20039;-67
2021/12/28 04:26:51;;;;;;;22.13;13.60;;;2.00;93.90;;;;;;4977778;28;20041;-67
2021/12/28 04:29:17;;;;;;;21.27;14.30;;;2.10;93.60;;;;;;4983310;28;20121;-67
2021/12/28 04:31:43;;;;;;;27.58;13.95;;;2.00;93.70;;;;;;4981421;28;20094;-67
2021/12/28 04:34:08;;;;;;;23.83;13.80;;;2.10;94.00;;;;;;4983752;28;20045;-67
2021/12/28 04:36:34;;;;;;;20.30;14.25;;;2.20;93.90;;;;;;4980904;28;20057;-67
2021/12/28 04:39:00;;;;;;;21.15;13.65;;;2.10;93.80;;;;;;4982833;28;20065;-67
2021/12/28 04:41:26;;;;;;;23.48;14.30;;;2.10;93.80;;;;;;4984322;28;20043;-67
2021/12/28 04:43:52;;;;;;;20.77;13.23;;;2.10;93.50;;;;;;4983620;28;20128;-67
2021/12/28 04:46:17;;;;;;;20.85;13.45;;;2.10;93.40;;;;;;4975650;28;20065;-67
2021/12/28 04:48:43;;;;;;;21.77;13.68;;;2.20;93.70;;;;;;4975109;28;20059;-66
2021/12/28 04:51:09;;;;;;;20.58;13.32;;;2.20;93.90;;;;;;4974791;28;20564;-66
2021/12/28 04:53:35;;;;;;;19.67;13.18;;;2.20;93.90;;;;;;4973822;28;20078;-67
2021/12/28 04:56:01;;;;;;;18.55;12.75;;;2.20;93.60;;;;;;4974102;28;20508;-67
2021/12/28 04:58:27;;;;;;;20.58;13.13;;;2.20;93.50;;;;;;4977309;28;20060;-67
2021/12/28 05:00:53;;;;;;;16.40;12.05;;;2.20;93.50;;;;;;4972843;28;20493;-67
2021/12/28 05:03:19;;;;;;;22.15;13.57;;;2.20;93.30;;;;;;4973532;28;20531;-67
2021/12/28 05:05:50;;;;;;;18.92;12.77;;;2.30;93.40;;;;;;4973952;28;20039;-67
2021/12/28 05:08:17;;;;;;;22.25;13.60;;;2.30;93.40;;;;;;4979706;28;20057;-66
2021/12/28 05:10:43;;;;;;;21.38;13.70;;;2.30;93.30;;;;;;4984518;28;20437;-67
2021/12/28 05:13:09;;;;;;;21.20;13.88;;;2.20;93.40;;;;;;4986670;28;20022;-66
2021/12/28 05:15:35;;;;;;;20.27;13.98;;;2.20;93.50;;;;;;4983162;28;20031;-67
2021/12/28 05:18:01;;;;;;;20.77;13.93;;;2.20;93.30;;;;;;4982834;28;20026;-67
2021/12/28 05:20:27;;;;;;;18.73;12.93;;;2.20;93.20;;;;;;4984862;28;20043;-66
2021/12/28 05:22:53;;;;;;;24.13;14.13;;;2.20;93.30;;;;;;4985156;28;20026;-66
2021/12/28 05:25:19;;;;;;;22.88;13.68;;;2.20;93.60;;;;;;4985636;28;20045;-67
2021/12/28 05:27:44;;;;;;;24.70;13.98;;;2.20;93.60;;;;;;4989991;28;20034;-66
2021/12/28 05:30:11;;;;;;;19.92;13.68;;;2.20;93.50;;;;;;4984883;28;20038;-67
2021/12/28 05:32:37;;;;;;;21.65;14.48;;;2.20;93.50;;;;;;4989590;28;20022;-66
2021/12/28 05:35:05;;;;;;;24.35;15.23;;;2.20;93.60;;;;;;4988199;28;20117;-66
2021/12/28 05:37:31;;;;;;;22.10;13.82;;;2.20;93.70;;;;;;4985145;28;20022;-66
2021/12/28 05:39:56;;;;;;;22.95;14.43;;;2.30;93.80;;;;;;4985707;28;20052;-67
2021/12/28 05:42:22;;;;;;;24.42;15.05;;;2.30;93.50;;;;;;4989564;28;20039;-67
2021/12/28 05:44:48;;;;;;;23.20;14.88;;;2.30;93.50;;;;;;4982477;28;20030;-67
2021/12/28 05:47:14;;;;;;;23.20;14.77;;;2.40;93.50;;;;;;4989383;28;20481;-66
2021/12/28 05:49:39;;;;;;;20.88;13.50;;;2.40;93.30;;;;;;4986003;28;20050;-67
2021/12/28 05:52:05;;;;;;;21.52;14.30;;;2.40;93.20;;;;;;4983888;28;20039;-66
2021/12/28 05:54:31;;;;;;;25.30;14.80;;;2.50;93.00;;;;;;4987258;28;20069;-67
2021/12/28 05:56:57;;;;;;;22.70;14.40;;;2.50;92.70;;;;;;4986647;28;20065;-66
2021/12/28 05:59:23;;;;;;;26.08;15.00;;;2.30;92.90;;;;;;4986078;28;20022;-66
2021/12/28 06:01:49;;;;;;;28.77;18.50;;;2.20;93.20;;;;;;4984222;28;20694;-67
2021/12/28 06:04:15;;;;;;;30.20;20.13;;;1.90;93.30;;;;;;4982613;28;20493;-67
2021/12/28 06:06:41;;;;;;;41.70;25.65;;;1.80;93.80;;;;;;4983580;28;20065;-66
2021/12/28 06:09:06;;;;;;;40.25;22.52;;;1.70;94.10;;;;;;4985399;28;20109;-66
2021/12/28 06:11:32;;;;;;;36.83;21.55;;;1.60;94.20;;;;;;4983163;28;20038;-66
2021/12/28 06:13:58;;;;;;;37.13;19.55;;;1.60;94.40;;;;;;4985850;28;20133;-66
2021/12/28 06:16:23;;;;;;;26.60;16.33;;;1.60;94.70;;;;;;4986237;28;20057;-66
2021/12/28 06:18:49;;;;;;;31.42;19.17;;;1.70;94.70;;;;;;4987924;28;20034;-66
2021/12/28 06:21:15;;;;;;;21.90;14.35;;;1.70;94.50;;;;;;4986331;28;20053;-66
2021/12/28 06:23:40;;;;;;;24.48;14.48;;;1.40;94.50;;;;;;5015116;28;20058;-66
2021/12/28 06:26:06;;;;;;;23.20;14.52;;;1.40;94.40;;;;;;4984501;28;20547;-66
2021/12/28 06:28:32;;;;;;;19.83;13.05;;;1.30;94.50;;;;;;4985005;28;20115;-67
2021/12/28 06:30:58;;;;;;;21.73;13.27;;;1.50;94.60;;;;;;4985267;28;20050;-66
2021/12/28 06:33:24;;;;;;;18.33;12.93;;;1.50;94.50;;;;;;4988136;28;20038;-66
2021/12/28 06:35:51;;;;;;;23.70;13.70;;;1.50;94.50;;;;;;4983123;28;20029;-67
2021/12/28 06:38:18;;;;;;;20.92;13.90;;;1.50;94.60;;;;;;4984577;28;20057;-67
2021/12/28 06:40:44;;;;;;;22.60;14.20;;;1.40;94.60;;;;;;4984099;28;20453;-66
2021/12/28 06:43:10;;;;;;;21.60;13.27;;;1.30;94.90;;;;;;4988793;28;20034;-66
2021/12/28 06:45:36;;;;;;;24.30;15.57;;;1.30;94.90;;;;;;4984255;28;20795;-67
2021/12/28 06:48:02;;;;;;;23.85;14.73;;;1.20;94.40;;;;;;4984814;28;20482;-67
2021/12/28 06:50:28;;;;;;;26.65;15.63;;;1.40;94.60;;;;;;4982323;28;20069;-67
2021/12/28 06:52:54;;;;;;;26.48;17.30;;;1.60;94.40;;;;;;4985943;28;20031;-66
2021/12/28 06:55:20;;;;;;;27.65;17.65;;;1.70;93.30;;;;;;4983715;28;20057;-66
2021/12/28 06:57:45;;;;;;;29.10;19.17;;;1.60;93.20;;;;;;4988815;28;20606;-67
2021/12/28 07:00:15;;;;;;;26.80;16.33;;;1.70;93.80;;;;;;4984576;28;20084;-67
2021/12/28 07:02:41;;;;;;;26.02;17.15;;;1.70;93.10;;;;;;4982627;28;20638;-66
2021/12/28 07:05:08;;;;;;;25.83;16.00;;;1.60;93.40;;;;;;4984790;28;20470;-66
2021/12/28 07:07:34;;;;;;;24.75;15.68;;;1.50;93.80;;;;;;4980465;28;20485;-66
2021/12/28 07:10:00;;;;;;;60.97;40.92;;;1.50;94.00;;;;;;4983568;28;20089;-66
2021/12/28 07:12:26;;;;;;;30.20;20.92;;;1.40;94.00;;;;;;4986863;28;20031;-66
2021/12/28 07:14:53;;;;;;;28.63;18.52;;;1.40;94.20;;;;;;4983764;28;20030;-67
2021/12/28 07:17:19;;;;;;;25.98;15.80;;;1.60;94.40;;;;;;4986191;28;20026;-67
2021/12/28 07:19:46;;;;;;;23.05;15.98;;;1.70;94.10;;;;;;4983912;28;20053;-67
2021/12/28 07:22:12;;;;;;;24.13;15.52;;;1.80;94.20;;;;;;4986271;28;20058;-66
2021/12/28 07:24:37;;;;;;;22.20;15.10;;;1.70;94.00;;;;;;4977545;28;20135;-66
2021/12/28 07:27:03;;;;;;;24.58;15.95;;;1.50;94.40;;;;;;4976821;28;20047;-67
2021/12/28 07:29:29;;;;;;;24.88;15.65;;;1.60;94.60;;;;;;4974664;28;20042;-66
2021/12/28 07:31:55;;;;;;;25.95;17.25;;;1.60;94.60;;;;;;4983958;28;20039;-66
2021/12/28 07:34:21;;;;;;;29.13;19.55;;;1.70;94.40;;;;;;4978611;28;20045;-66
2021/12/28 07:36:47;;;;;;;36.10;24.13;;;1.90;94.20;;;;;;4981523;28;20045;-67
2021/12/28 07:39:13;;;;;;;28.58;19.08;;;1.90;93.80;;;;;;4975588;28;20042;-66
2021/12/28 07:41:39;;;;;;;23.02;15.10;;;1.70;93.70;;;;;;4973930;28;20120;-66
2021/12/28 07:44:05;;;;;;;25.33;16.30;;;1.50;94.00;;;;;;4977260;28;20452;-66
2021/12/28 07:46:30;;;;;;;26.52;16.23;;;1.40;94.50;;;;;;4976060;28;20085;-66
2021/12/28 07:48:56;;;;;;;23.67;16.52;;;1.50;94.60;;;;;;4974151;28;20031;-66
2021/12/28 07:51:22;;;;;;;52.72;31.10;;;1.80;94.30;;;;;;4978368;28;20034;-67
2021/12/28 07:53:47;;;;;;;38.35;22.00;;;1.80;94.10;;;;;;4985959;28;20065;-67
2021/12/28 07:56:14;;;;;;;44.10;26.40;;;1.90;94.20;;;;;;4985734;28;20058;-67
2021/12/28 07:58:39;;;;;;;31.98;21.55;;;2.10;93.90;;;;;;4982775;28;20022;-66
2021/12/28 08:01:05;;;;;;;35.97;22.02;;;2.00;94.00;;;;;;4983435;28;20668;-66
2021/12/28 08:03:31;;;;;;;62.92;43.65;;;2.20;93.80;;;;;;4981490;28;20061;-66
2021/12/28 08:05:57;;;;;;;46.35;36.17;;;2.40;93.60;;;;;;4981987;28;20041;-67
2021/12/28 08:08:22;;;;;;;46.80;32.72;;;2.50;93.50;;;;;;4980973;28;20100;-67
2021/12/28 08:10:48;;;;;;;37.22;23.58;;;2.30;93.40;;;;;;4980773;28;20033;-67
2021/12/28 08:13:16;;;;;;;31.90;18.95;;;2.10;93.70;;;;;;4982234;28;20381;-66
2021/12/28 08:15:42;;;;;;;32.22;20.13;;;2.00;93.90;;;;;;4983075;28;20487;-66
2021/12/28 08:18:09;;;;;;;31.23;19.15;;;1.90;94.40;;;;;;4982121;28;20046;-66
2021/12/28 08:20:36;;;;;;;29.80;22.42;;;2.00;94.40;;;;;;4979731;28;20034;-66
2021/12/28 08:23:02;;;;;;;29.50;19.63;;;2.00;94.10;;;;;;4981941;28;20027;-66
2021/12/28 08:25:28;;;;;;;28.85;19.10;;;2.00;94.30;;;;;;4985632;28;20039;-67
2021/12/28 08:27:54;;;;;;;30.90;20.55;;;2.10;94.40;;;;;;4985040;28;20030;-66
2021/12/28 08:30:20;;;;;;;40.60;34.20;;;2.00;94.30;;;;;;4979435;28;20031;-66
2021/12/28 08:32:46;;;;;;;32.88;25.30;;;2.00;94.50;;;;;;4981638;28;20115;-66
2021/12/28 08:35:13;;;;;;;30.92;20.63;;;2.00;94.50;;;;;;4981634;28;20091;-66
2021/12/28 08:37:39;;;;;;;29.55;18.85;;;2.10;94.60;;;;;;4982354;28;20023;-66
2021/12/28 08:40:07;;;;;;;30.15;22.30;;;2.30;94.40;;;;;;4980508;28;20724;-66
2021/12/28 08:42:32;;;;;;;27.27;19.77;;;2.30;94.30;;;;;;4980366;28;20039;-66
2021/12/28 08:44:58;;;;;;;29.92;20.67;;;2.10;94.40;;;;;;4983084;28;20617;-66
2021/12/28 08:47:26;;;;;;;24.90;16.08;;;2.00;94.90;;;;;;4981262;28;20046;-66
2021/12/28 08:49:54;;;;;;;22.42;15.20;;;2.10;95.20;;;;;;4980703;28;20397;-66
2021/12/28 08:52:20;;;;;;;24.63;16.30;;;2.30;95.20;;;;;;4982863;28;20105;-66
2021/12/28 08:54:46;;;;;;;22.63;14.75;;;2.40;94.80;;;;;;4985418;28;20035;-66
2021/12/28 08:57:11;;;;;;;24.13;14.77;;;2.60;94.50;;;;;;4980109;28;20088;-66
2021/12/28 08:59:37;;;;;;;23.75;14.63;;;2.70;94.40;;;;;;4980134;28;20407;-66
2021/12/28 09:02:03;;;;;;;20.25;14.00;;;2.80;94.10;;;;;;4972455;28;20031;-66
2021/12/28 09:04:28;;;;;;;21.67;14.15;;;2.90;94.10;;;;;;4974859;28;20513;-67
2021/12/28 09:06:54;;;;;;;21.80;15.30;;;2.90;94.00;;;;;;4975206;28;20062;-67
2021/12/28 09:09:20;;;;;;;21.83;14.82;;;2.90;94.20;;;;;;4982503;28;20055;-66
2021/12/28 09:11:46;;;;;;;22.17;14.38;;;2.90;93.90;;;;;;4982194;28;20093;-67
2021/12/28 09:14:12;;;;;;;22.20;14.48;;;2.90;94.00;;;;;;4978216;28;20041;-67
2021/12/28 09:16:38;;;;;;;24.98;14.43;;;2.80;94.20;;;;;;4981471;28;20022;-67
2021/12/28 09:19:04;;;;;;;22.73;14.63;;;2.90;94.20;;;;;;4983360;28;20486;-67
2021/12/28 09:21:30;;;;;;;20.83;14.10;;;2.80;94.50;;;;;;4978014;28;20030;-67
2021/12/28 09:23:55;;;;;;;21.23;14.98;;;2.80;94.50;;;;;;4981188;28;20094;-69
2021/12/28 09:26:21;;;;;;;21.50;14.43;;;2.80;94.80;;;;;;4980509;28;20037;-68
2021/12/28 09:28:47;;;;;;;24.70;15.60;;;2.80;95.10;;;;;;4979435;28;20043;-68
2021/12/28 09:31:12;;;;;;;21.55;14.88;;;2.90;95.40;;;;;;4978853;28;20022;-67
2021/12/28 09:33:38;;;;;;;24.60;15.95;;;2.90;95.30;;;;;;4983653;28;20097;-66
2021/12/28 09:36:07;;;;;;;28.10;19.67;;;3.00;95.10;;;;;;4980689;28;20034;-67
2021/12/28 09:38:33;;;;;;;24.35;16.98;;;3.00;95.00;;;;;;4979666;28;20169;-67
2021/12/28 09:40:59;;;;;;;25.05;16.75;;;3.00;95.10;;;;;;4980760;28;20051;-67
2021/12/28 09:43:26;;;;;;;22.80;15.32;;;2.90;95.30;;;;;;4981720;28;20169;-67
2021/12/28 09:45:51;;;;;;;25.70;16.23;;;2.90;95.40;;;;;;4975074;28;20041;-67
2021/12/28 09:48:18;;;;;;;24.23;16.85;;;2.90;95.60;;;;;;4974193;28;20393;-67
2021/12/28 09:50:44;;;;;;;24.05;15.60;;;3.00;95.50;;;;;;4972499;28;20108;-67
2021/12/28 09:53:12;;;;;;;21.63;15.52;;;2.90;95.50;;;;;;4981032;28;20034;-66
2021/12/28 09:55:38;;;;;;;25.60;16.42;;;2.90;95.70;;;;;;4983356;28;20458;-67
2021/12/28 09:58:04;;;;;;;24.33;15.60;;;3.00;96.00;;;;;;4982601;28;20038;-67
2021/12/28 10:00:30;;;;;;;26.73;16.10;;;3.00;95.90;;;;;;4981639;28;20053;-66
2021/12/28 10:02:56;;;;;;;23.65;16.50;;;3.00;95.60;;;;;;4985979;28;20068;-68
2021/12/28 10:05:24;;;;;;;27.80;17.50;;;3.10;95.30;;;;;;4980998;28;20129;-68
2021/12/28 10:07:59;;;;;;;28.90;18.45;;;3.20;95.00;;;;;;4984109;28;20030;-67
2021/12/28 10:10:30;;;;;;;23.13;15.98;;;3.20;94.90;;;;;;4984108;28;20110;-68
2021/12/28 10:12:59;;;;;;;22.65;15.75;;;3.20;95.00;;;;;;4989345;28;20034;-68
2021/12/28 10:15:29;;;;;;;23.55;16.33;;;3.20;94.90;;;;;;4983845;28;20041;-68
2021/12/28 10:17:57;;;;;;;27.15;16.80;;;3.20;94.90;;;;;;4984320;28;20034;-68
2021/12/28 10:20:30;;;;;;;27.95;18.70;;;3.20;95.20;;;;;;4983091;28;20558;-68
2021/12/28 10:22:59;;;;;;;23.90;17.05;;;3.20;95.30;;;;;;4981381;28;20034;-68
2021/12/28 10:25:40;;;;;;;26.70;16.85;;;3.20;95.70;;;;;;4984801;28;20075;-68
2021/12/28 10:28:12;;;;;;;23.23;16.50;;;3.20;95.30;;;;;;4983445;28;20940;-67
2021/12/28 10:30:49;;;;;;;25.23;17.52;;;3.30;95.30;;;;;;4981875;28;20037;-67
2021/12/28 10:33:18;;;;;;;27.85;19.13;;;3.20;95.40;;;;;;4984520;28;20053;-66
2021/12/28 10:35:51;;;;;;;28.02;18.20;;;3.20;95.60;;;;;;4986343;28;20386;-66
2021/12/28 10:38:21;;;;;;;28.95;21.20;;;3.10;95.50;;;;;;4980264;28;20030;-67
2021/12/28 10:40:48;;;;;;;27.35;19.10;;;3.10;95.60;;;;;;4983084;28;20022;-67
2021/12/28 10:43:20;;;;;;;25.30;18.33;;;3.10;95.80;;;;;;4986723;28;20069;-67
2021/12/28 10:45:48;;;;;;;31.33;20.23;;;3.10;95.90;;;;;;4979641;28;20045;-68
2021/12/28 10:48:20;;;;;;;26.70;18.65;;;3.10;95.90;;;;;;4988995;28;21232;-66
2021/12/28 10:50:47;;;;;;;26.92;18.80;;;3.10;95.90;;;;;;4986195;28;20084;-67
2021/12/28 10:53:21;;;;;;;26.40;18.38;;;3.00;96.10;;;;;;4979683;28;20037;-67
2021/12/28 10:55:52;;;;;;;32.13;25.92;;;3.00;96.10;;;;;;4986425;28;20034;-66
2021/12/28 10:58:24;;;;;;;27.55;19.45;;;2.90;96.30;;;;;;4979729;28;20065;-66
2021/12/28 11:00:51;;;;;;;29.48;19.60;;;2.90;96.50;;;;;;4985104;28;20382;-66
2021/12/28 11:03:27;;;;;;;35.85;24.25;;;2.90;96.60;;;;;;4979338;28;20092;-66
2021/12/28 11:05:55;;;;;;;28.35;20.20;;;2.80;96.70;;;;;;4983448;28;20130;-67
2021/12/28 11:08:23;;;;;;;28.13;19.48;;;2.90;96.60;;;;;;4977165;28;20420;-65
2021/12/28 11:10:56;;;;;;;29.75;18.98;;;2.80;96.70;;;;;;4976403;28;20030;-65
2021/12/28 11:13:30;;;;;;;29.92;20.13;;;2.90;96.50;;;;;;4977134;28;20045;-65
2021/12/28 11:15:58;;;;;;;29.15;18.92;;;2.90;96.40;;;;;;4980260;28;20030;-66
2021/12/28 11:18:30;;;;;;;32.47;20.90;;;2.90;96.80;;;;;;4974551;28;20664;-66
2021/12/28 11:20:58;;;;;;;28.85;19.08;;;2.90;96.70;;;;;;4981185;28;20472;-67
2021/12/28 11:23:26;;;;;;;32.42;22.17;;;2.90;96.80;;;;;;4981964;28;20780;-65
2021/12/28 11:26:23;;;;;;;30.73;20.23;;;2.90;96.60;;;;;;4984943;28;20121;-65
2021/12/28 11:29:09;;;;;;;30.60;20.13;;;2.90;96.70;;;;;;4978599;28;20046;-65
2021/12/28 11:31:40;;;;;;;28.98;20.27;;;2.90;96.70;;;;;;4977984;28;20110;-65
2021/12/28 11:34:13;;;;;;;31.17;19.70;;;2.90;96.60;;;;;;4980952;28;20492;-65
2021/12/28 11:36:55;;;;;;;30.30;19.50;;;2.90;96.70;;;;;;4979633;28;20045;-65
2021/12/28 11:39:23;;;;;;;;;;;3.00;96.70;;;;;;4978545;28;20038;-65
2021/12/28 11:41:50;;;;;;;31.20;19.80;;;3.00;96.90;;;;;;4983286;28;19953;-65
2021/12/28 11:44:17;;;;;;;30.50;20.35;;;3.00;96.70;;;;;;4977701;28;20038;-66
2021/12/28 11:46:43;;;;;;;29.63;20.05;;;2.90;96.70;;;;;;4981811;28;20422;-65
2021/12/28 11:49:12;;;;;;;31.15;20.85;;;2.90;96.90;;;;;;4980444;28;20057;-65
2021/12/28 11:51:38;;;;;;;30.52;20.38;;;2.90;96.90;;;;;;4981931;28;20022;-65
2021/12/28 11:54:07;;;;;;;31.55;21.70;;;3.00;96.80;;;;;;4981675;28;20059;-65
2021/12/28 11:56:37;;;;;;;32.60;20.73;;;3.00;97.00;;;;;;4978484;28;20046;-65
2021/12/28 11:59:13;;;;;;;33.33;20.77;;;3.10;96.60;;;;;;4976098;28;20073;-65
2021/12/28 12:01:44;;;;;;;35.33;22.05;;;3.10;96.80;;;;;;4975238;28;20034;-65
2021/12/28 12:04:30;;;;;;;31.70;18.98;;;3.10;96.70;;;;;;4975691;28;20511;-65
2021/12/28 12:07:01;;;;;;;30.65;20.02;;;3.10;96.60;;;;;;4978983;28;20031;-65
2021/12/28 12:09:27;;;;;;;31.02;20.45;;;3.10;96.90;;;;;;4985280;28;20027;-65
2021/12/28 12:12:08;;;;;;;40.35;26.38;;;3.00;97.00;;;;;;4978454;28;20030;-66
2021/12/28 12:14:52;;;;;;;29.90;20.63;;;3.10;97.20;;;;;;4975280;28;20456;-65
2021/12/28 12:17:37;;;;;;;32.08;20.35;;;3.10;97.20;;;;;;4978406;28;20388;-64
2021/12/28 12:20:25;;;;;;;33.33;18.88;;;3.10;97.20;;;;;;4977433;28;20022;-65
2021/12/28 12:22:52;;;;;;;29.33;19.00;;;3.20;97.30;;;;;;4975805;28;20030;-65
2021/12/28 12:25:20;;;;;;;32.95;20.10;;;3.20;97.10;;;;;;4979423;28;20023;-64
2021/12/28 12:27:50;;;;;;;27.65;19.27;;;3.20;97.30;;;;;;4979160;28;20040;-64
2021/12/28 12:30:18;;;;;;;32.72;21.67;;;3.30;97.00;;;;;;4981792;28;20030;-64
2021/12/28 12:33:02;;;;;;;33.63;21.55;;;3.40;97.00;;;;;;4982424;28;20076;-65
2021/12/28 12:35:33;;;;;;;33.38;21.70;;;3.40;96.90;;;;;;4980119;28;20081;-64
2021/12/28 12:38:14;;;;;;;28.80;18.17;;;3.50;96.90;;;;;;4979261;28;20453;-65
2021/12/28 12:41:00;;;;;;;32.15;20.27;;;3.40;96.80;;;;;;4981895;28;20685;-63
2021/12/28 12:43:35;;;;;;;30.92;20.38;;;3.30;97.10;;;;;;4982207;28;20042;-63